Time;durP1;ratioP1;P1;durP2;ratioP2;P2;SDS_P1;SDS_P2;PMS_P1;PMS_P2;Temp;Humidity;BMP_temperature;BMP_pressure;BME280_temperature;BME280_humidity;BME280_pressure;Samples;Min_cycle;Max_cycle;Signal;HPM_P1;HPM_P2
2022/10/05 00:01:46;;;;;;;2.42;2.00;;;14.80;64.40;;;;;;5074898;28;20122;-76
2022/10/05 00:04:18;;;;;;;2.45;1.90;;;14.70;64.50;;;;;;5092174;28;20493;-77
2022/10/05 00:06:55;;;;;;;2.30;2.10;;;14.70;64.50;;;;;;5092925;28;20085;-77
2022/10/05 00:09:22;;;;;;;2.60;1.92;;;14.80;64.70;;;;;;5078069;28;20115;-77
2022/10/05 00:11:49;;;;;;;2.17;2.08;;;14.70;64.70;;;;;;5078881;28;20032;-78
2022/10/05 00:14:25;;;;;;;1.90;1.80;;;14.70;64.80;;;;;;5096219;28;20028;-78
2022/10/05 00:16:51;;;;;;;2.28;2.10;;;14.80;64.90;;;;;;5096220;28;20032;-77
2022/10/05 00:19:32;;;;;;;2.40;2.05;;;14.70;64.90;;;;;;5096722;28;20028;-77
2022/10/05 00:22:05;;;;;;;2.10;1.90;;;14.70;65.00;;;;;;5080418;28;20028;-78
2022/10/05 00:24:30;;;;;;;2.20;2.00;;;14.70;65.10;;;;;;5078842;28;20399;-77
2022/10/05 00:27:11;;;;;;;2.40;2.10;;;14.70;65.10;;;;;;5078833;28;20035;-77
2022/10/05 00:29:37;;;;;;;2.10;1.90;;;14.70;65.20;;;;;;5096480;28;20016;-77
2022/10/05 00:32:03;;;;;;;2.50;2.10;;;14.70;65.20;;;;;;5096939;28;20077;-76
2022/10/05 00:34:32;;;;;;;3.20;2.30;;;14.70;65.20;;;;;;5096700;28;20036;-77
2022/10/05 00:36:58;;;;;;;2.33;1.98;;;14.70;65.20;;;;;;5096502;28;20028;-77
2022/10/05 00:39:24;;;;;;;2.58;2.38;;;14.70;65.20;;;;;;5078490;28;20519;-77
2022/10/05 00:42:09;;;;;;;2.00;1.85;;;14.70;65.20;;;;;;5096528;28;20056;-76
2022/10/05 00:45:07;;;;;;;2.03;1.92;;;14.70;65.30;;;;;;5077495;28;20108;-76
2022/10/05 00:47:54;;;;;;;2.88;2.20;;;14.70;65.40;;;;;;5077433;28;20382;-77
2022/10/05 00:50:52;;;;;;;2.22;2.03;;;14.70;65.30;;;;;;5095265;28;20024;-77
2022/10/05 00:53:27;;;;;;;2.80;2.60;;;14.70;65.30;;;;;;5096214;28;20047;-77
2022/10/05 00:56:20;;;;;;;2.10;1.90;;;14.70;65.30;;;;;;5096037;28;20418;-76
2022/10/05 00:58:54;;;;;;;2.22;1.85;;;14.70;65.30;;;;;;5096166;28;20032;-77
2022/10/05 01:01:49;;;;;;;2.30;2.10;;;14.70;65.30;;;;;;5078138;28;20481;-76
2022/10/05 01:04:44;;;;;;;2.25;2.05;;;14.70;65.50;;;;;;5069290;28;20040;-76
2022/10/05 01:07:33;;;;;;;3.00;1.90;;;14.70;65.60;;;;;;5093097;28;20040;-77
2022/10/05 01:10:19;;;;;;;2.35;2.15;;;14.70;65.60;;;;;;5096411;28;20024;-77
2022/10/05 01:13:20;;;;;;;2.28;2.08;;;14.70;65.60;;;;;;5095164;28;20112;-81
2022/10/05 01:15:55;;;;;;;1.92;1.83;;;14.70;65.80;;;;;;5095018;28;20028;-76
2022/10/05 01:18:31;;;;;;;2.72;2.38;;;14.60;65.60;;;;;;5094912;28;20068;-77
2022/10/05 01:21:26;;;;;;;2.40;1.90;;;14.70;65.60;;;;;;5094422;28;20024;-77
2022/10/05 01:24:19;;;;;;;2.13;2.03;;;14.70;65.70;;;;;;5094858;28;20052;-76
2022/10/05 01:27:27;;;;;;;2.28;2.08;;;14.70;65.70;;;;;;5095611;28;20141;-76
2022/10/05 01:30:07;;;;;;;1.90;1.80;;;14.70;65.90;;;;;;5081412;28;20040;-77
2022/10/05 01:33:00;;;;;;;2.92;1.92;;;14.70;66.30;;;;;;5077403;28;20028;-77
2022/10/05 01:35:48;;;;;;;2.10;2.00;;;14.60;65.90;;;;;;5084970;28;20486;-77
2022/10/05 01:38:31;;;;;;;2.10;1.90;;;14.60;65.90;;;;;;5095339;28;20027;-75
2022/10/05 01:41:21;;;;;;;2.33;2.10;;;14.70;65.90;;;;;;5095354;28;20036;-77
2022/10/05 01:43:53;;;;;;;2.20;1.98;;;14.60;65.90;;;;;;5076938;28;20051;-74
2022/10/05 01:46:49;;;;;;;2.58;2.38;;;14.60;65.90;;;;;;5094327;28;20039;-76
2022/10/05 01:49:29;;;;;;;2.60;1.98;;;14.60;66.10;;;;;;5094667;28;20020;-77
2022/10/05 01:52:00;;;;;;;1.77;1.67;;;14.60;66.00;;;;;;5094065;28;20056;-77
2022/10/05 01:54:26;;;;;;;2.17;1.90;;;14.70;66.10;;;;;;5094785;28;20029;-77
2022/10/05 01:57:20;;;;;;;2.53;1.90;;;14.60;66.10;;;;;;5094809;28;20031;-77
2022/10/05 02:00:24;;;;;;;2.20;2.00;;;14.70;66.30;;;;;;5057815;28;20043;-77
2022/10/05 02:02:58;;;;;;;2.17;1.98;;;14.70;66.20;;;;;;5072805;28;20052;-77
2022/10/05 02:05:25;;;;;;;2.20;2.00;;;14.70;66.20;;;;;;5094115;28;20038;-78
2022/10/05 02:08:00;;;;;;;2.00;1.90;;;14.70;66.20;;;;;;5094614;28;20461;-77
2022/10/05 02:10:48;;;;;;;2.22;2.05;;;14.70;66.20;;;;;;5076879;28;20027;-77
2022/10/05 02:13:14;;;;;;;2.13;1.92;;;14.70;66.30;;;;;;5075749;28;20062;-77
2022/10/05 02:15:48;;;;;;;2.65;2.10;;;14.70;66.30;;;;;;5093565;28;20079;-77
2022/10/05 02:18:19;;;;;;;;;;;14.70;66.30;;;;;;5076186;28;20028;-76
2022/10/05 02:20:46;;;;;;;3.42;1.95;;;14.70;66.90;;;;;;5093724;28;19904;-77
2022/10/05 02:23:21;;;;;;;2.40;2.20;;;14.60;66.30;;;;;;5094540;28;20032;-77
2022/10/05 02:25:50;;;;;;;1.98;1.88;;;14.60;66.30;;;;;;5094810;28;20024;-78
2022/10/05 02:28:21;;;;;;;1.90;1.80;;;14.60;66.30;;;;;;5093975;28;20374;-77
2022/10/05 02:31:04;;;;;;;2.63;2.20;;;14.70;66.40;;;;;;5094039;28;20028;-77
2022/10/05 02:33:31;;;;;;;2.42;2.00;;;14.70;66.50;;;;;;5094548;28;20044;-77
2022/10/05 02:36:16;;;;;;;2.15;1.92;;;14.70;66.50;;;;;;5075775;28;20031;-77
2022/10/05 02:38:48;;;;;;;1.98;1.88;;;14.70;66.60;;;;;;5094371;28;20055;-78
2022/10/05 02:41:22;;;;;;;2.20;2.00;;;14.60;66.50;;;;;;5075958;28;20510;-76
2022/10/05 02:44:09;;;;;;;2.20;2.10;;;14.60;66.60;;;;;;5093207;28;20031;-77
2022/10/05 02:46:40;;;;;;;2.60;2.40;;;14.70;66.70;;;;;;5075307;28;20114;-77
2022/10/05 02:49:27;;;;;;;2.05;1.95;;;14.70;66.60;;;;;;5075497;28;20388;-75
2022/10/05 02:52:20;;;;;;;2.00;1.90;;;14.70;66.80;;;;;;5095400;28;20050;-77
2022/10/05 02:55:04;;;;;;;2.40;2.20;;;14.60;66.70;;;;;;5094168;28;20035;-77
2022/10/05 02:57:34;;;;;;;2.75;2.15;;;14.70;66.80;;;;;;5093898;28;20370;-78
2022/10/05 03:00:14;;;;;;;1.92;1.83;;;14.60;66.70;;;;;;5094171;28;20412;-76
2022/10/05 03:03:06;;;;;;;2.03;1.80;;;14.60;66.70;;;;;;5093857;28;20027;-76
2022/10/05 03:05:51;;;;;;;2.33;1.98;;;14.60;66.80;;;;;;5094231;28;20028;-76
2022/10/05 03:08:30;;;;;;;2.10;2.00;;;14.70;66.80;;;;;;5076002;28;20024;-76
2022/10/05 03:11:28;;;;;;;2.00;1.80;;;14.60;66.80;;;;;;5093928;28;20028;-77
2022/10/05 03:13:59;;;;;;;2.03;1.92;;;14.60;67.00;;;;;;5092943;28;20028;-77
2022/10/05 03:16:24;;;;;;;2.17;1.98;;;14.60;66.80;;;;;;5092774;28;20150;-77
2022/10/05 03:19:16;;;;;;;2.38;2.17;;;14.60;66.80;;;;;;5093068;28;20513;-75
2022/10/05 03:21:59;;;;;;;4.10;2.10;;;14.60;66.80;;;;;;5093198;28;20028;-77
2022/10/05 03:25:02;;;;;;;2.00;1.90;;;14.60;67.50;;;;;;5093719;28;20063;-77
2022/10/05 03:28:13;;;;;;;2.60;1.88;;;14.60;67.00;;;;;;5093695;28;20040;-76
2022/10/05 03:31:03;;;;;;;2.75;2.28;;;14.60;67.10;;;;;;5047425;28;20381;-77
2022/10/05 03:33:47;;;;;;;2.10;1.90;;;14.60;67.10;;;;;;5093896;28;20036;-76
2022/10/05 03:36:37;;;;;;;2.13;1.92;;;14.60;67.00;;;;;;5093726;28;20031;-76
2022/10/05 03:39:45;;;;;;;2.90;2.03;;;14.50;67.10;;;;;;5093428;28;20088;-77
2022/10/05 03:42:27;;;;;;;2.40;2.20;;;14.50;67.10;;;;;;5048949;28;20048;-76
2022/10/05 03:44:55;;;;;;;2.00;1.90;;;14.50;67.10;;;;;;5096677;28;20089;-76
2022/10/05 03:47:36;;;;;;;4.28;2.10;;;14.50;67.10;;;;;;5095926;28;20024;-77
2022/10/05 03:50:39;;;;;;;2.30;2.05;;;14.50;67.10;;;;;;5095437;28;20089;-77
2022/10/05 03:53:20;;;;;;;2.33;2.13;;;14.50;67.20;;;;;;5096367;28;20059;-77
2022/10/05 03:55:52;;;;;;;2.35;2.15;;;14.40;67.20;;;;;;5096709;28;20648;-78
2022/10/05 03:58:38;;;;;;;2.50;2.30;;;14.40;67.20;;;;;;5097235;28;20039;-77
2022/10/05 04:01:09;;;;;;;2.42;2.22;;;14.40;67.30;;;;;;5078964;28;20020;-77
2022/10/05 04:03:40;;;;;;;3.58;2.35;;;14.40;67.40;;;;;;5059258;28;20442;-77
2022/10/05 04:06:13;;;;;;;4.15;2.40;;;14.40;67.40;;;;;;5067082;28;20024;-77
2022/10/05 04:08:59;;;;;;;2.92;2.25;;;14.40;67.40;;;;;;5078110;28;20441;-79
2022/10/05 04:11:36;;;;;;;2.03;1.92;;;14.40;67.50;;;;;;5059376;28;20020;-78
2022/10/05 04:14:24;;;;;;;2.88;2.08;;;14.40;67.50;;;;;;5097307;28;20090;-77
2022/10/05 04:17:00;;;;;;;2.72;2.50;;;14.40;67.50;;;;;;5096977;28;20446;-78
2022/10/05 04:19:52;;;;;;;2.55;2.35;;;14.40;67.50;;;;;;5079523;28;20027;-76
2022/10/05 04:22:28;;;;;;;2.55;2.35;;;14.40;67.50;;;;;;5097094;28;20134;-77
2022/10/05 04:25:16;;;;;;;2.63;2.42;;;14.40;67.40;;;;;;5098261;28;20496;-77
2022/10/05 04:27:53;;;;;;;2.60;2.38;;;14.40;67.50;;;;;;5077502;28;20134;-75
2022/10/05 04:30:21;;;;;;;2.10;2.00;;;14.40;67.40;;;;;;5096650;28;20032;-74
2022/10/05 04:32:56;;;;;;;2.30;2.10;;;14.40;67.40;;;;;;5097128;28;20028;-78
2022/10/05 04:35:43;;;;;;;2.50;2.30;;;14.40;67.60;;;;;;5078295;28;20465;-81
2022/10/05 04:38:14;;;;;;;3.17;2.35;;;14.50;67.80;;;;;;5096953;28;20031;-81
2022/10/05 04:41:29;;;;;;;4.32;2.55;;;14.50;67.80;;;;;;5074611;28;20123;-74
2022/10/05 04:44:33;;;;;;;3.70;2.23;;;14.50;67.90;;;;;;4994297;28;20066;-80
2022/10/05 04:47:28;;;;;;;3.03;2.72;;;14.50;67.50;;;;;;5075994;28;20333;-78
2022/10/05 04:49:54;;;;;;;2.30;2.13;;;14.50;67.40;;;;;;5034108;28;20037;-77
2022/10/05 04:52:39;;;;;;;3.38;2.63;;;14.60;67.40;;;;;;5074723;28;20131;-79
2022/10/05 04:55:30;;;;;;;2.33;2.13;;;14.60;67.40;;;;;;5073180;28;20036;-74
2022/10/05 04:58:13;;;;;;;2.33;2.17;;;14.60;67.40;;;;;;5075787;28;20037;-78
2022/10/05 05:01:20;;;;;;;2.25;1.90;;;14.60;67.40;;;;;;5074950;28;20493;-74
2022/10/05 05:04:01;;;;;;;2.20;2.00;;;14.60;67.40;;;;;;5059932;28;20041;-76
2022/10/05 05:06:29;;;;;;;4.30;2.30;;;14.60;67.30;;;;;;5074037;28;20060;-74
2022/10/05 05:09:25;;;;;;;3.35;2.50;;;14.60;67.20;;;;;;5074506;28;20024;-77
2022/10/05 05:12:06;;;;;;;2.47;2.28;;;14.70;67.20;;;;;;5068789;28;20562;-76
2022/10/05 05:14:49;;;;;;;2.92;2.47;;;14.70;67.10;;;;;;5074449;28;20032;-77
2022/10/05 05:17:40;;;;;;;2.53;2.33;;;14.70;67.10;;;;;;5073179;28;20029;-75
2022/10/05 05:20:47;;;;;;;2.55;2.30;;;14.70;67.00;;;;;;5072310;28;20024;-79
2022/10/05 05:23:20;;;;;;;2.08;1.88;;;14.80;67.00;;;;;;5064693;28;20036;-80
2022/10/05 05:26:07;;;;;;;4.28;2.35;;;14.80;66.90;;;;;;5071368;28;20505;-72
2022/10/05 05:28:33;;;;;;;2.38;2.17;;;14.80;66.90;;;;;;5072004;28;20033;-75
2022/10/05 05:31:23;;;;;;;2.65;2.45;;;14.90;66.90;;;;;;5076904;28;20104;-76
2022/10/05 05:34:26;;;;;;;2.60;2.40;;;14.90;66.90;;;;;;5070397;28;20489;-78
2022/10/05 05:37:15;;;;;;;2.42;2.22;;;14.90;66.80;;;;;;5070762;28;20443;-76
2022/10/05 05:39:55;;;;;;;2.20;2.05;;;14.90;66.70;;;;;;5071498;28;20047;-77
2022/10/05 05:42:52;;;;;;;2.22;2.03;;;15.00;66.70;;;;;;5073241;28;20039;-77
2022/10/05 05:45:37;;;;;;;2.78;2.28;;;15.00;66.70;;;;;;5074065;28;20036;-78
2022/10/05 05:48:20;;;;;;;3.60;2.35;;;15.00;66.60;;;;;;5073523;28;20032;-77
2022/10/05 05:50:58;;;;;;;3.85;2.40;;;15.10;66.60;;;;;;5072522;28;20028;-79
2022/10/05 05:53:46;;;;;;;3.20;2.33;;;15.10;66.60;;;;;;5074409;28;20025;-80
2022/10/05 05:56:13;;;;;;;2.47;2.20;;;15.10;66.60;;;;;;5042663;28;20040;-78
2022/10/05 05:59:14;;;;;;;3.08;2.78;;;15.10;66.50;;;;;;5074257;28;20502;-82
2022/10/05 06:01:49;;;;;;;2.90;2.30;;;15.20;66.50;;;;;;5065197;28;20103;-78
2022/10/05 06:04:21;;;;;;;3.15;2.85;;;15.10;66.50;;;;;;5069437;28;20432;-77
2022/10/05 06:06:50;;;;;;;3.00;2.42;;;15.20;66.40;;;;;;5072297;28;20049;-78
2022/10/05 06:09:31;;;;;;;2.53;2.33;;;15.20;66.40;;;;;;5071595;28;20107;-79
2022/10/05 06:12:03;;;;;;;2.88;2.35;;;15.20;66.30;;;;;;5070168;28;20020;-77
2022/10/05 06:14:32;;;;;;;2.40;2.20;;;15.30;66.30;;;;;;5070241;28;20054;-77
2022/10/05 06:17:04;;;;;;;2.72;2.30;;;15.30;66.20;;;;;;5074375;28;20428;-75
2022/10/05 06:19:33;;;;;;;2.45;2.25;;;15.40;66.10;;;;;;5072466;28;20044;-80
2022/10/05 06:22:28;;;;;;;3.25;2.45;;;15.40;66.00;;;;;;5074625;28;20023;-79
2022/10/05 06:25:05;;;;;;;2.30;2.10;;;15.40;65.80;;;;;;5074301;28;20501;-80
2022/10/05 06:27:35;;;;;;;2.40;2.20;;;15.40;65.70;;;;;;5074324;28;20478;-78
2022/10/05 06:30:10;;;;;;;2.47;2.28;;;15.40;65.60;;;;;;5073922;28;20465;-80
2022/10/05 06:33:00;;;;;;;;;;;15.40;65.70;;;;;;5074561;28;20032;-81
2022/10/05 06:35:34;;;;;;;2.30;2.10;;;15.40;65.50;;;;;;5074234;28;19991;-78
2022/10/05 06:38:24;;;;;;;2.35;2.15;;;15.40;65.60;;;;;;5074898;28;20037;-82
2022/10/05 06:41:22;;;;;;;3.20;2.20;;;15.40;65.40;;;;;;5082926;28;20051;-79
2022/10/05 06:44:03;;;;;;;2.22;2.03;;;15.50;65.40;;;;;;5094121;28;20134;-81
2022/10/05 06:46:46;;;;;;;2.25;2.08;;;15.50;65.40;;;;;;5076238;28;20036;-80
2022/10/05 06:49:16;;;;;;;;;;;15.50;65.30;;;;;;5077044;28;20040;-80
2022/10/05 06:51:50;;;;;;;2.35;2.10;;;15.50;64.80;;;;;;5094228;28;19905;-80
2022/10/05 06:54:31;;;;;;;2.60;2.20;;;15.60;65.10;;;;;;5094110;28;20123;-80
2022/10/05 06:56:56;;;;;;;2.10;2.00;;;15.60;65.10;;;;;;5094013;28;20024;-77
2022/10/05 06:59:35;;;;;;;2.42;2.22;;;15.70;65.10;;;;;;5094058;28;20100;-80
2022/10/05 07:02:33;;;;;;;3.92;2.15;;;15.70;64.90;;;;;;5094360;28;20028;-80
2022/10/05 07:05:33;;;;;;;2.40;2.20;;;15.80;64.80;;;;;;5083200;28;20087;-80
2022/10/05 07:08:29;;;;;;;2.10;1.98;;;15.80;64.70;;;;;;5094639;28;20537;-79
2022/10/05 07:11:30;;;;;;;2.25;2.10;;;15.80;64.50;;;;;;5094194;28;20028;-81
2022/10/05 07:14:21;;;;;;;2.53;2.20;;;15.80;64.40;;;;;;5089764;28;20407;-80
2022/10/05 07:16:59;;;;;;;2.15;2.00;;;15.90;64.30;;;;;;5093774;28;20052;-80
2022/10/05 07:20:07;;;;;;;2.40;2.20;;;15.90;64.20;;;;;;5093259;28;20347;-81
2022/10/05 07:22:50;;;;;;;2.42;2.20;;;15.90;64.10;;;;;;5093465;28;20035;-80
2022/10/05 07:25:25;;;;;;;3.00;2.00;;;15.90;64.10;;;;;;5094100;28;20519;-79
2022/10/05 07:28:20;;;;;;;2.20;2.00;;;15.90;64.20;;;;;;5075554;28;20086;-80
2022/10/05 07:31:06;;;;;;;2.58;2.17;;;15.90;64.10;;;;;;5082653;28;20036;-76
2022/10/05 07:34:06;;;;;;;2.30;2.10;;;16.00;64.10;;;;;;5075407;28;20032;-79
2022/10/05 07:39:37;;;;;;;2.17;1.98;;;16.10;63.90;;;;;;5093925;28;20069;-81
2022/10/05 07:42:34;;;;;;;2.10;1.90;;;16.10;63.80;;;;;;5093621;28;20052;-79
2022/10/05 07:45:18;;;;;;;2.30;2.10;;;16.10;63.70;;;;;;5094074;28;20044;-80
2022/10/05 07:47:56;;;;;;;2.40;2.20;;;16.10;63.40;;;;;;5094028;28;20027;-80
2022/10/05 07:50:33;;;;;;;2.00;1.85;;;16.10;63.40;;;;;;5093719;28;20020;-79
2022/10/05 07:53:04;;;;;;;2.28;2.08;;;16.20;63.40;;;;;;5093646;28;20073;-80
2022/10/05 07:55:56;;;;;;;1.85;1.70;;;16.20;63.30;;;;;;5093758;28;20058;-80
2022/10/05 07:58:40;;;;;;;3.70;2.15;;;16.20;63.20;;;;;;5075401;28;20024;-79
2022/10/05 08:01:30;;;;;;;2.22;2.05;;;16.20;63.10;;;;;;5093672;28;20070;-76
2022/10/05 08:04:02;;;;;;;2.10;1.60;;;16.10;63.00;;;;;;5093825;28;20107;-80
2022/10/05 08:06:37;;;;;;;2.00;1.83;;;16.10;63.10;;;;;;5093939;28;20111;-80
2022/10/05 08:09:27;;;;;;;2.35;2.15;;;16.10;63.10;;;;;;5093352;28;20032;-80
2022/10/05 08:11:59;;;;;;;2.22;2.03;;;16.10;63.00;;;;;;5074902;28;20055;-79
2022/10/05 08:14:54;;;;;;;2.45;2.22;;;16.10;63.10;;;;;;5075168;28;20047;-81
2022/10/05 08:17:37;;;;;;;2.35;1.83;;;16.20;63.10;;;;;;5057630;28;20038;-80
2022/10/05 08:20:28;;;;;;;2.17;2.08;;;16.20;62.90;;;;;;5075089;28;20032;-79
2022/10/05 08:23:18;;;;;;;2.30;2.10;;;16.30;62.60;;;;;;5093337;28;20043;-79
2022/10/05 08:26:08;;;;;;;2.25;2.05;;;16.30;62.70;;;;;;5075211;28;20028;-80
2022/10/05 08:28:45;;;;;;;2.85;2.20;;;16.30;62.50;;;;;;5093279;28;20462;-80
2022/10/05 08:31:28;;;;;;;2.25;2.03;;;16.30;62.50;;;;;;5097470;28;20181;-79
2022/10/05 08:34:18;;;;;;;2.10;2.00;;;16.30;62.50;;;;;;5096914;28;20064;-79
2022/10/05 08:36:54;;;;;;;1.90;1.80;;;16.30;62.40;;;;;;5096455;28;20027;-82
2022/10/05 08:39:23;;;;;;;1.80;1.70;;;16.30;62.60;;;;;;5078843;28;20086;-76
2022/10/05 08:42:19;;;;;;;1.80;1.70;;;16.30;62.60;;;;;;5096552;28;20056;-78
2022/10/05 08:45:03;;;;;;;1.98;1.80;;;16.40;62.30;;;;;;5096454;28;20043;-80
2022/10/05 08:47:55;;;;;;;2.00;1.80;;;16.40;62.10;;;;;;5096249;28;20035;-79
2022/10/05 08:51:05;;;;;;;2.47;2.30;;;16.40;62.00;;;;;;5096528;28;20537;-79
2022/10/05 08:54:10;;;;;;;1.60;1.50;;;16.50;61.80;;;;;;5077981;28;20032;-81
2022/10/05 08:56:45;;;;;;;1.92;1.83;;;16.60;61.70;;;;;;5078289;28;20119;-79
2022/10/05 08:59:42;;;;;;;2.00;1.80;;;16.60;61.70;;;;;;5078483;28;20507;-81
2022/10/05 09:02:43;;;;;;;1.83;1.73;;;16.70;61.50;;;;;;5096661;28;20111;-81
2022/10/05 09:05:37;;;;;;;2.20;2.00;;;16.80;61.40;;;;;;5037638;28;20040;-81
2022/10/05 09:08:11;;;;;;;2.38;1.95;;;16.80;61.30;;;;;;5095966;28;20488;-79
2022/10/05 09:10:56;;;;;;;;;;;16.80;61.30;;;;;;5096534;28;20020;-79
2022/10/05 09:14:00;;;;;;;1.63;1.52;;;16.80;60.90;;;;;;5096169;28;19904;-79
2022/10/05 09:16:34;;;;;;;3.35;1.85;;;16.90;60.90;;;;;;5095260;28;20089;-79
2022/10/05 09:19:18;;;;;;;2.20;2.00;;;16.80;61.10;;;;;;5077789;28;20108;-78
2022/10/05 09:21:46;;;;;;;2.33;1.95;;;16.90;61.00;;;;;;5095832;28;20096;-77
2022/10/05 09:24:24;;;;;;;1.92;1.80;;;16.90;61.00;;;;;;5077527;28;20035;-79
2022/10/05 09:26:57;;;;;;;2.17;1.50;;;17.00;60.90;;;;;;5096082;28;20557;-83
2022/10/05 09:29:57;;;;;;;1.60;1.50;;;17.10;60.80;;;;;;5078311;28;20020;-79
2022/10/05 09:32:23;;;;;;;2.20;1.55;;;17.10;60.30;;;;;;5095980;28;20436;-81
2022/10/05 09:35:03;;;;;;;2.08;1.85;;;17.20;60.50;;;;;;5077588;28;20462;-80
2022/10/05 09:38:04;;;;;;;1.67;1.58;;;17.30;60.10;;;;;;5095673;28;20423;-81
2022/10/05 09:40:46;;;;;;;2.28;1.70;;;17.40;59.90;;;;;;5076787;28;20052;-80
2022/10/05 09:43:40;;;;;;;2.03;1.90;;;17.40;59.90;;;;;;5095313;28;20036;-77
2022/10/05 09:46:44;;;;;;;1.92;1.60;;;17.40;59.50;;;;;;5095287;28;20094;-82
2022/10/05 09:49:12;;;;;;;1.98;1.70;;;17.40;59.40;;;;;;5077466;28;20020;-79
2022/10/05 09:51:57;;;;;;;1.83;1.73;;;17.50;59.90;;;;;;5095447;28;20450;-80
2022/10/05 09:54:43;;;;;;;1.70;1.60;;;17.50;59.50;;;;;;5095522;28;20039;-80
2022/10/05 09:57:44;;;;;;;1.60;1.50;;;17.50;59.40;;;;;;5060921;28;20473;-82
2022/10/05 10:00:25;;;;;;;1.90;1.55;;;17.40;59.30;;;;;;5095141;28;20032;-82
2022/10/05 10:03:04;;;;;;;1.80;1.70;;;17.40;59.50;;;;;;5094872;28;20111;-81
2022/10/05 10:05:32;;;;;;;1.83;1.73;;;17.30;59.30;;;;;;5076699;28;20073;-81
2022/10/05 10:08:19;;;;;;;2.00;1.80;;;17.40;59.60;;;;;;5094872;28;20031;-79
2022/10/05 10:11:22;;;;;;;1.52;1.42;;;17.40;59.60;;;;;;5076853;28;20028;-81
2022/10/05 10:14:04;;;;;;;1.70;1.50;;;17.40;59.20;;;;;;5095086;28;20032;-80
2022/10/05 10:16:48;;;;;;;1.80;1.70;;;17.40;59.40;;;;;;5094714;28;20027;-80
2022/10/05 10:19:16;;;;;;;1.88;1.70;;;17.40;59.40;;;;;;5094845;28;20031;-76
2022/10/05 10:21:51;;;;;;;1.67;1.52;;;17.40;59.30;;;;;;5094662;28;20150;-80
2022/10/05 10:24:35;;;;;;;1.67;1.58;;;17.50;59.20;;;;;;5094651;28;20481;-80
2022/10/05 10:27:20;;;;;;;1.60;1.50;;;17.50;58.60;;;;;;5094497;28;20028;-79
2022/10/05 10:30:17;;;;;;;1.70;1.60;;;17.60;58.90;;;;;;5076711;28;20032;-81
2022/10/05 10:33:25;;;;;;;2.33;1.77;;;17.60;58.90;;;;;;5094694;28;20119;-81
2022/10/05 10:36:10;;;;;;;2.72;1.48;;;17.60;58.60;;;;;;5094348;28;20111;-80
2022/10/05 10:38:58;;;;;;;1.80;1.70;;;17.60;58.70;;;;;;5094630;28;20024;-80
2022/10/05 10:42:11;;;;;;;1.65;1.55;;;17.70;58.60;;;;;;5076193;28;20094;-80
2022/10/05 10:44:46;;;;;;;2.70;1.33;;;17.70;58.50;;;;;;5038513;28;20052;-80
2022/10/05 10:47:14;;;;;;;;;;;17.80;58.50;;;;;;5095028;28;20024;-81
2022/10/05 10:50:18;;;;;;;1.45;1.33;;;17.70;57.90;;;;;;5094269;28;19919;-81
2022/10/05 10:52:53;;;;;;;2.65;1.98;;;17.80;58.10;;;;;;5075823;28;20126;-81
2022/10/05 10:55:22;;;;;;;1.40;1.30;;;17.80;58.40;;;;;;5094634;28;20077;-81
2022/10/05 10:58:18;;;;;;;1.63;1.52;;;17.80;58.30;;;;;;5075768;28;20028;-80
2022/10/05 11:00:43;;;;;;;1.25;1.20;;;17.80;58.70;;;;;;5093849;28;20036;-80
2022/10/05 11:03:35;;;;;;;1.30;1.25;;;17.80;58.20;;;;;;5094344;28;20039;-79
2022/10/05 11:06:36;;;;;;;2.13;1.35;;;17.80;57.90;;;;;;5094057;28;20126;-79
2022/10/05 11:09:27;;;;;;;1.50;1.40;;;17.90;57.50;;;;;;5075711;28;20028;-77
2022/10/05 11:12:20;;;;;;;1.52;1.42;;;17.90;57.80;;;;;;5094163;28;20431;-80
2022/10/05 11:15:05;;;;;;;1.80;1.58;;;17.90;57.70;;;;;;5093842;28;20378;-80
2022/10/05 11:17:56;;;;;;;1.65;1.48;;;18.00;57.70;;;;;;5094161;28;20074;-81
2022/10/05 11:20:54;;;;;;;2.53;1.50;;;18.00;57.30;;;;;;5093887;28;20462;-80
2022/10/05 11:23:44;;;;;;;1.45;1.23;;;18.10;57.30;;;;;;5093639;28;20032;-80
2022/10/05 11:26:24;;;;;;;1.40;1.30;;;18.10;57.20;;;;;;5093880;28;20028;-80
2022/10/05 11:29:28;;;;;;;1.40;1.30;;;18.10;57.20;;;;;;5075864;28;20123;-80
2022/10/05 11:32:15;;;;;;;1.25;1.25;;;18.20;56.80;;;;;;5093394;28;20099;-85
2022/10/05 11:35:17;;;;;;;1.27;1.17;;;18.20;56.80;;;;;;5093402;28;20028;-80
2022/10/05 11:37:58;;;;;;;1.80;1.30;;;18.20;56.70;;;;;;5093624;28;20059;-79
2022/10/05 11:40:51;;;;;;;1.40;1.30;;;18.20;56.80;;;;;;5093864;28;20059;-81
2022/10/05 11:43:45;;;;;;;1.38;1.27;;;18.10;56.70;;;;;;5096029;28;20044;-79
2022/10/05 11:46:34;;;;;;;2.03;1.52;;;18.10;56.70;;;;;;5093774;28;20108;-80
2022/10/05 11:49:22;;;;;;;1.30;1.20;;;18.00;56.70;;;;;;5076002;28;20039;-81
2022/10/05 11:51:56;;;;;;;1.30;1.20;;;18.00;57.00;;;;;;5075344;28;20164;-81
2022/10/05 11:54:33;;;;;;;2.08;1.60;;;17.90;56.90;;;;;;5093375;28;20028;-80
2022/10/05 11:57:07;;;;;;;1.50;1.40;;;17.90;56.80;;;;;;5093827;28;20055;-80
2022/10/05 11:59:59;;;;;;;1.73;1.63;;;17.90;57.00;;;;;;5075649;28;20024;-81
2022/10/05 12:02:59;;;;;;;1.40;1.30;;;17.80;57.00;;;;;;5080237;28;20040;-80
2022/10/05 12:05:46;;;;;;;1.80;1.70;;;17.80;56.90;;;;;;5096177;28;20028;-81
2022/10/05 12:08:17;;;;;;;1.55;1.38;;;17.80;56.80;;;;;;5097653;28;20074;-82
2022/10/05 12:10:55;;;;;;;1.15;1.05;;;17.80;57.10;;;;;;5097126;28;20055;-82
2022/10/05 12:13:35;;;;;;;1.50;1.40;;;17.80;57.10;;;;;;5097343;28;20035;-80
2022/10/05 12:16:15;;;;;;;1.58;1.48;;;17.80;57.20;;;;;;5079676;28;20038;-81
2022/10/05 12:18:50;;;;;;;1.60;1.50;;;17.70;57.10;;;;;;5097317;28;20024;-80
2022/10/05 12:21:32;;;;;;;2.13;1.60;;;17.70;57.10;;;;;;5097183;28;20095;-80
2022/10/05 12:24:02;;;;;;;1.30;1.20;;;17.70;57.20;;;;;;5080039;28;20044;-81
2022/10/05 12:27:03;;;;;;;1.40;1.30;;;17.70;57.20;;;;;;5078933;28;20028;-79
2022/10/05 12:29:52;;;;;;;1.65;1.55;;;17.70;57.60;;;;;;4995199;28;20030;-81
2022/10/05 12:32:23;;;;;;;1.35;1.33;;;17.70;57.20;;;;;;5091967;28;20094;-79
2022/10/05 12:35:02;;;;;;;1.88;1.55;;;17.70;57.30;;;;;;5096979;28;20024;-80
2022/10/05 12:37:42;;;;;;;1.55;1.45;;;17.70;57.20;;;;;;5096730;28;20028;-82
2022/10/05 12:40:10;;;;;;;2.20;1.60;;;17.70;57.30;;;;;;5096919;28;20089;-80
2022/10/05 12:43:03;;;;;;;1.67;1.50;;;17.70;57.20;;;;;;5078368;28;20063;-80
2022/10/05 12:45:48;;;;;;;1.95;1.70;;;17.70;57.10;;;;;;5096715;28;20047;-80
2022/10/05 12:48:28;;;;;;;2.13;1.50;;;17.60;57.20;;;;;;5097001;28;20024;-80
2022/10/05 12:51:08;;;;;;;1.50;1.40;;;17.60;57.20;;;;;;5096718;28;20028;-79
2022/10/05 12:53:47;;;;;;;1.48;1.38;;;17.60;57.20;;;;;;5078738;28;20032;-80
2022/10/05 12:56:28;;;;;;;1.80;1.70;;;17.60;57.30;;;;;;5078324;28;20523;-82
2022/10/05 12:59:28;;;;;;;1.63;1.52;;;17.50;57.30;;;;;;5096501;28;20059;-80
2022/10/05 13:02:22;;;;;;;1.73;1.63;;;17.50;57.30;;;;;;5078622;28;20035;-79
2022/10/05 13:05:09;;;;;;;2.10;1.50;;;17.50;57.40;;;;;;5096170;28;20042;-79
2022/10/05 13:07:41;;;;;;;1.42;1.33;;;17.40;57.30;;;;;;5096460;28;20034;-80
2022/10/05 13:10:22;;;;;;;1.80;1.67;;;17.40;57.50;;;;;;5096463;28;20131;-81
2022/10/05 13:13:23;;;;;;;2.13;1.90;;;17.30;57.60;;;;;;5096414;28;20107;-80
2022/10/05 13:15:51;;;;;;;2.30;1.88;;;17.30;57.60;;;;;;5095007;28;20028;-80
2022/10/05 13:18:53;;;;;;;1.70;1.60;;;17.20;57.80;;;;;;5096258;28;20028;-80
2022/10/05 13:21:26;;;;;;;2.65;1.60;;;17.20;57.90;;;;;;5074637;28;20047;-81
2022/10/05 13:24:02;;;;;;;1.95;1.70;;;17.10;57.90;;;;;;5095985;28;20032;-80
2022/10/05 13:26:59;;;;;;;1.70;1.60;;;17.10;58.00;;;;;;5077813;28;20103;-77
2022/10/05 13:29:33;;;;;;;1.70;1.60;;;17.10;58.00;;;;;;5095869;28;20508;-81
2022/10/05 13:32:06;;;;;;;2.08;1.65;;;17.10;58.10;;;;;;5095716;28;20077;-81
2022/10/05 13:35:10;;;;;;;1.95;1.75;;;17.10;58.20;;;;;;5095545;28;20020;-80
2022/10/05 13:37:54;;;;;;;2.08;1.80;;;17.10;58.20;;;;;;5095581;28;20028;-82
2022/10/05 13:40:45;;;;;;;2.42;1.70;;;17.00;58.20;;;;;;5095201;28;20099;-82
2022/10/05 13:43:33;;;;;;;1.67;1.58;;;17.10;58.20;;;;;;5077775;28;20473;-80
2022/10/05 13:46:05;;;;;;;1.38;1.27;;;17.00;58.30;;;;;;5095797;28;20058;-81
2022/10/05 13:48:51;;;;;;;1.95;1.70;;;17.00;58.30;;;;;;5095529;28;20024;-79
2022/10/05 13:51:38;;;;;;;2.25;1.83;;;17.00;58.30;;;;;;5095341;28;20081;-80
2022/10/05 13:54:30;;;;;;;1.70;1.60;;;16.90;58.30;;;;;;5095901;28;20028;-80
2022/10/05 13:57:21;;;;;;;1.88;1.50;;;16.90;58.40;;;;;;5095733;28;20458;-81
2022/10/05 13:59:52;;;;;;;2.08;1.67;;;16.90;58.50;;;;;;5095008;28;20436;-80
2022/10/05 14:02:31;;;;;;;1.70;1.60;;;16.90;58.50;;;;;;5095238;28;20023;-80
2022/10/05 14:05:00;;;;;;;2.03;1.90;;;16.90;58.50;;;;;;5076854;28;20032;-80
2022/10/05 14:07:33;;;;;;;2.17;1.50;;;16.90;58.60;;;;;;5076857;28;20378;-75
2022/10/05 14:10:00;;;;;;;1.80;1.70;;;16.90;58.70;;;;;;5076807;28;20032;-77
2022/10/05 14:12:27;;;;;;;1.90;1.70;;;16.90;59.30;;;;;;5094789;28;20257;-77
2022/10/05 14:14:55;;;;;;;1.83;1.73;;;16.90;58.80;;;;;;5095084;28;20036;-81